createdAt,value
2023-05-05T00:00:23.600Z,3.50
2023-05-05T00:07:59.013Z,2.85
2023-05-05T00:15:32.939Z,3.30
2023-05-05T00:23:08.441Z,2.75
2023-05-05T00:30:42.333Z,2.75
2023-05-05T00:38:17.690Z,2.90
2023-05-05T00:46:03.406Z,3.15
2023-05-05T00:53:40.597Z,3.35
2023-05-05T01:01:15.722Z,2.80
2023-05-05T01:09:05.547Z,2.92
2023-05-05T01:16:46.700Z,2.85
2023-05-05T01:24:50.876Z,2.50
2023-05-05T01:32:28.677Z,3.13
2023-05-05T01:40:10.142Z,2.83
2023-05-05T01:47:48.187Z,3.22
2023-05-05T01:55:25.885Z,3.00
2023-05-05T02:03:04.178Z,3.05
2023-05-05T02:10:41.107Z,2.88
2023-05-05T02:18:16.525Z,3.33
2023-05-05T02:25:53.792Z,2.80
2023-05-05T02:33:34.310Z,3.08
2023-05-05T02:49:04.358Z,3.17
2023-05-05T02:56:42.426Z,3.60
2023-05-05T03:12:22.663Z,3.08
2023-05-05T03:19:58.629Z,3.20
2023-05-05T03:27:32.592Z,3.17
2023-05-05T03:35:08.648Z,3.40
2023-05-05T03:42:42.926Z,3.55
2023-05-05T03:50:18.258Z,4.30
2023-05-05T03:57:52.470Z,3.17
2023-05-05T04:05:27.951Z,4.20
2023-05-05T04:13:02.366Z,3.75
2023-05-05T04:20:37.773Z,4.37
2023-05-05T04:28:11.575Z,4.13
2023-05-05T04:35:46.911Z,4.05
2023-05-05T04:43:21.144Z,4.10
2023-05-05T04:50:56.797Z,4.63
2023-05-05T04:58:31.278Z,4.10
2023-05-05T05:06:06.721Z,4.40
2023-05-05T05:13:41.549Z,4.43
2023-05-05T05:21:16.907Z,4.68
2023-05-05T05:28:51.009Z,4.35
2023-05-05T05:36:26.346Z,5.37
2023-05-05T05:44:00.616Z,4.35
2023-05-05T05:51:36.170Z,5.40
2023-05-05T05:59:10.231Z,4.90
2023-05-05T06:06:45.878Z,5.30
2023-05-05T06:22:12.975Z,5.07
2023-05-05T06:29:47.100Z,4.93
2023-05-05T06:37:22.655Z,6.90
2023-05-05T06:44:56.721Z,4.70
2023-05-05T07:00:24.611Z,4.65
2023-05-05T07:08:00.247Z,4.80
2023-05-05T07:23:26.984Z,4.10
2023-05-05T07:31:00.919Z,3.85
2023-05-05T07:38:36.460Z,4.20
2023-05-05T07:46:10.596Z,4.07
2023-05-05T07:53:46.092Z,3.90
2023-05-05T08:01:20.651Z,3.90
2023-05-05T08:08:56.322Z,3.80
2023-05-05T08:16:30.517Z,5.30
2023-05-05T08:24:06.336Z,3.63
2023-05-05T08:31:40.349Z,4.38
2023-05-05T08:47:07.482Z,4.43
2023-05-05T08:54:48.661Z,4.50
2023-05-05T09:02:24.298Z,4.55
2023-05-05T09:10:00.428Z,5.10
2023-05-05T09:17:34.621Z,3.72
2023-05-05T09:33:04.412Z,3.90
2023-05-05T09:40:48.196Z,4.43
2023-05-05T09:48:27.108Z,3.42
2023-05-05T09:56:02.653Z,4.40
2023-05-05T10:03:52.162Z,3.85
2023-05-05T10:11:27.544Z,3.80
2023-05-05T10:27:00.194Z,3.72
2023-05-05T10:34:40.766Z,4.03
2023-05-05T10:42:18.479Z,3.45
2023-05-05T10:49:58.993Z,3.90
2023-05-05T10:57:40.847Z,3.53
2023-05-05T11:05:18.114Z,4.25
2023-05-05T11:13:25.888Z,3.38
2023-05-05T11:29:07.167Z,3.80
2023-05-05T11:36:42.716Z,3.77
2023-05-05T11:52:13.562Z,3.70
2023-05-05T11:59:54.119Z,4.25
2023-05-05T12:07:31.325Z,3.50
2023-05-05T12:23:04.106Z,3.42
2023-05-05T12:30:38.224Z,3.40
2023-05-05T12:46:10.412Z,3.45
2023-05-05T12:53:46.499Z,3.42
2023-05-05T13:01:20.615Z,3.05
2023-05-05T13:08:56.923Z,3.47
2023-05-05T13:16:37.082Z,3.00
2023-05-05T13:32:04.195Z,2.83
2023-05-05T13:39:39.562Z,2.90
2023-05-05T13:47:14.250Z,2.90
2023-05-05T13:54:49.727Z,2.72
2023-05-05T14:02:24.297Z,2.88
2023-05-05T14:10:00.380Z,2.70
2023-05-05T14:17:34.477Z,3.15
2023-05-05T14:25:10.414Z,2.93
2023-05-05T14:32:44.403Z,2.72
2023-05-05T14:40:19.964Z,2.80
2023-05-05T14:47:54.049Z,2.88
2023-05-05T14:55:29.401Z,2.50
2023-05-05T15:03:03.655Z,3.40
2023-05-05T15:10:39.265Z,3.20
2023-05-05T15:18:13.318Z,3.33
2023-05-05T15:25:48.769Z,3.23
2023-05-05T15:33:22.764Z,2.60
2023-05-05T15:40:58.248Z,2.88
2023-05-05T15:48:32.606Z,3.20
2023-05-05T15:56:08.927Z,3.17
2023-05-05T16:03:42.874Z,3.05
2023-05-05T16:11:19.450Z,2.63
2023-05-05T16:18:56.961Z,2.30
2023-05-05T16:26:32.294Z,2.88
2023-05-05T16:34:06.251Z,3.85
2023-05-05T16:41:41.878Z,3.03
2023-05-05T16:49:16.072Z,3.65
2023-05-05T17:04:43.464Z,3.28
2023-05-05T17:12:18.895Z,3.05
2023-05-05T17:19:53.562Z,3.22
2023-05-05T17:27:29.207Z,3.55
2023-05-05T17:35:03.334Z,3.38
2023-05-05T17:42:39.091Z,3.17
2023-05-05T17:58:05.705Z,3.63
2023-05-05T18:05:39.599Z,3.35
2023-05-05T18:21:06.694Z,3.70
2023-05-05T18:36:33.882Z,3.70
2023-05-05T18:44:09.179Z,4.10
2023-05-05T18:51:42.997Z,4.47
2023-05-05T18:59:18.861Z,4.53
2023-05-05T19:06:52.890Z,4.50
2023-05-05T19:14:28.419Z,3.95
2023-05-05T19:29:55.000Z,4.78
2023-05-05T19:37:28.979Z,5.15
2023-05-05T19:45:05.295Z,4.90
2023-05-05T19:52:41.799Z,4.53
2023-05-05T20:08:09.983Z,3.83
2023-05-05T20:23:19.156Z,4.75
2023-05-05T20:30:54.834Z,4.32
2023-05-05T20:38:28.988Z,3.92
2023-05-05T20:46:04.600Z,3.75
2023-05-05T20:53:38.620Z,4.53
2023-05-05T21:01:14.489Z,4.47
2023-05-05T21:08:48.503Z,4.28
2023-05-05T21:16:23.801Z,4.40
2023-05-05T21:23:57.910Z,3.95
2023-05-05T21:31:33.534Z,4.80
2023-05-05T21:47:00.079Z,4.70
2023-05-05T21:54:34.027Z,4.78
2023-05-05T22:02:09.361Z,4.85
2023-05-05T22:09:43.774Z,4.32
2023-05-05T22:17:19.150Z,5.73
2023-05-05T22:24:53.504Z,5.15
2023-05-05T22:32:28.843Z,5.57
2023-05-05T22:40:02.843Z,5.30
2023-05-05T22:47:38.278Z,5.07
2023-05-05T22:55:14.704Z,5.07
2023-05-05T23:02:50.049Z,6.38
2023-05-05T23:10:24.168Z,4.93
2023-05-05T23:17:59.592Z,5.27
2023-05-05T23:25:34.841Z,6.10
2023-05-05T23:33:10.237Z,6.07
2023-05-05T23:40:44.527Z,5.97
2023-05-05T23:48:20.057Z,6.80
2023-05-05T23:55:54.022Z,6.78
